Time;durP1;ratioP1;P1;durP2;ratioP2;P2;SDS_P1;SDS_P2;PMS_P1;PMS_P2;Temp;Humidity;BMP_temperature;BMP_pressure;BME280_temperature;BME280_humidity;BME280_pressure;Samples;Min_cycle;Max_cycle;Signal;HPM_P1;HPM_P2
2023/04/18 00:01:15;;;;;;;17.58;12.43;;;;;;;;;;4975900;28;20421;-79
2023/04/18 00:03:41;;;;;;;18.30;12.52;;;;;;;;;;4975901;28;20410;-81
2023/04/18 00:06:07;;;;;;;17.50;11.25;;;;;;;;;;4959152;28;20898;-81
2023/04/18 00:08:33;;;;;;;17.35;12.45;;;;;;;;;;4975217;28;20435;-81
2023/04/18 00:10:59;;;;;;;17.20;12.00;;;;;;;;;;4977225;28;20938;-81
2023/04/18 00:13:27;;;;;;;17.77;12.20;;;;;;;;;;4953353;28;20424;-80
2023/04/18 00:15:53;;;;;;;17.05;12.30;;;;;;;;;;4979388;28;20417;-80
2023/04/18 00:18:20;;;;;;;17.05;11.55;;;;;;;;;;4970712;28;20474;-81
2023/04/18 00:20:46;;;;;;;17.23;12.53;;;;;;;;;;4993585;28;20439;-81
2023/04/18 00:23:15;;;;;;;17.98;12.80;;;;;;;;;;4981819;28;20425;-81
2023/04/18 00:25:41;;;;;;;17.80;12.48;;;;;;;;;;4963726;28;20493;-80
2023/04/18 00:28:08;;;;;;;18.05;12.60;;;;;;;;;;4966234;28;20406;-79
2023/04/18 00:30:34;;;;;;;17.00;12.02;;;;;;;;;;4947354;28;20422;-81
2023/04/18 00:33:01;;;;;;;19.83;12.90;;;;;;;;;;4963382;28;20406;-82
2023/04/18 00:35:27;;;;;;;19.33;12.38;;;;;;;;;;4963010;28;20843;-81
2023/04/18 00:37:53;;;;;;;16.95;12.02;;;;;;;;;;4978752;28;20529;-81
2023/04/18 00:40:19;;;;;;;16.87;11.97;;;;;;;;;;4988856;28;20442;-80
2023/04/18 00:42:45;;;;;;;18.02;12.10;;;;;;;;;;4968728;28;20436;-81
2023/04/18 00:45:11;;;;;;;16.30;11.70;;;;;;;;;;4962862;28;20441;-80
2023/04/18 00:47:37;;;;;;;18.55;12.15;;;;;;;;;;4978950;28;20774;-80
2023/04/18 00:50:04;;;;;;;17.60;11.90;;;;;;;;;;4978732;28;20441;-79
2023/04/18 00:52:32;;;;;;;16.88;11.23;;;;;;;;;;4974962;28;20415;-79
2023/04/18 00:54:59;;;;;;;16.77;10.90;;;;;;;;;;4959862;28;20948;-82
2023/04/18 00:57:25;;;;;;;15.45;10.73;;;;;;;;;;4959521;28;20416;-80
2023/04/18 00:59:51;;;;;;;15.52;11.07;;;;;;;;;;4976635;28;20408;-81
2023/04/18 01:02:17;;;;;;;16.17;11.70;;;;;;;;;;4961538;28;20437;-81
2023/04/18 01:04:44;;;;;;;17.55;10.85;;;;;;;;;;4958940;28;20507;-81
2023/04/18 01:07:10;;;;;;;16.17;11.20;;;;;;;;;;5009583;28;20437;-81
2023/04/18 01:09:36;;;;;;;16.08;10.25;;;;;;;;;;4964983;28;20425;-82
2023/04/18 01:12:03;;;;;;;16.15;10.82;;;;;;;;;;4981183;28;20429;-81
2023/04/18 01:14:29;;;;;;;15.18;10.38;;;;;;;;;;4978426;28;20417;-80
2023/04/18 01:16:56;;;;;;;16.60;10.15;;;;;;;;;;4996137;28;20499;-81
2023/04/18 01:19:22;;;;;;;15.88;11.10;;;;;;;;;;4964037;28;20928;-82
2023/04/18 01:21:48;;;;;;;15.52;10.30;;;;;;;;;;4960868;28;20755;-82
2023/04/18 01:24:15;;;;;;;15.43;10.30;;;;;;;;;;4960423;28;20434;-82
2023/04/18 01:26:42;;;;;;;14.25;10.07;;;;;;;;;;5001449;28;20432;-83
2023/04/18 01:29:09;;;;;;;15.82;10.75;;;;;;;;;;4983778;28;20503;-82
2023/04/18 01:31:38;;;;;;;18.63;11.05;;;;;;;;;;4992194;28;20521;-81
2023/04/18 01:34:05;;;;;;;16.95;11.88;;;;;;;;;;4977051;28;20843;-82
2023/04/18 01:36:31;;;;;;;16.25;11.85;;;;;;;;;;4977214;28;20428;-81
2023/04/18 01:38:58;;;;;;;17.05;11.77;;;;;;;;;;4982668;28;20422;-83
2023/04/18 01:41:24;;;;;;;16.58;11.80;;;;;;;;;;4964418;28;20477;-82
2023/04/18 01:43:50;;;;;;;18.87;12.70;;;;;;;;;;4963273;28;20422;-83
2023/04/18 01:46:16;;;;;;;17.60;12.05;;;;;;;;;;4956286;28;20806;-83
2023/04/18 01:48:42;;;;;;;17.20;11.80;;;;;;;;;;5005651;28;20404;-82
2023/04/18 01:51:08;;;;;;;16.83;11.90;;;;;;;;;;4997061;28;20425;-82
2023/04/18 01:53:35;;;;;;;17.60;11.77;;;;;;;;;;4968778;28;20890;-82
2023/04/18 01:56:01;;;;;;;17.13;12.00;;;;;;;;;;4972635;28;20420;-82
2023/04/18 01:58:27;;;;;;;18.90;12.18;;;;;;;;;;4978750;28;20424;-83
2023/04/18 02:00:53;;;;;;;17.48;12.13;;;;;;;;;;4973887;28;20516;-82
2023/04/18 02:03:20;;;;;;;16.48;11.95;;;;;;;;;;4975913;28;20509;-82
2023/04/18 02:05:46;;;;;;;16.70;12.10;;;;;;;;;;4967116;28;20485;-83
2023/04/18 02:08:13;;;;;;;18.33;12.15;;;;;;;;;;4993064;28;20415;-83
2023/04/18 02:10:39;;;;;;;16.42;12.02;;;;;;;;;;4993675;28;20824;-83
2023/04/18 02:13:05;;;;;;;17.20;11.88;;;;;;;;;;4988667;28;20458;-84
2023/04/18 02:15:31;;;;;;;16.85;12.65;;;;;;;;;;4994462;28;21096;-83
2023/04/18 02:18:01;;;;;;;18.13;12.60;;;;;;;;;;4988143;28;20808;-83
2023/04/18 02:20:30;;;;;;;18.23;12.40;;;;;;;;;;4996559;28;20408;-83
2023/04/18 02:22:57;;;;;;;20.35;11.68;;;;;;;;;;4961903;28;20456;-83
2023/04/18 02:25:25;;;;;;;15.65;11.43;;;;;;;;;;4971611;28;20774;-83
2023/04/18 02:27:52;;;;;;;18.33;11.90;;;;;;;;;;4992365;28;20417;-82
2023/04/18 02:30:18;;;;;;;17.23;12.10;;;;;;;;;;4993090;28;20492;-83
2023/04/18 02:32:44;;;;;;;18.88;12.02;;;;;;;;;;4974536;28;20425;-82
2023/04/18 02:35:11;;;;;;;16.77;11.43;;;;;;;;;;4959351;28;20430;-82
2023/04/18 02:37:37;;;;;;;16.38;11.55;;;;;;;;;;4961222;28;20439;-80
2023/04/18 02:40:04;;;;;;;18.05;11.75;;;;;;;;;;4961957;28;20889;-83
2023/04/18 02:42:30;;;;;;;16.67;11.60;;;;;;;;;;4964221;28;20806;-82
2023/04/18 02:44:56;;;;;;;16.48;11.75;;;;;;;;;;4973818;28;20430;-83
2023/04/18 02:47:22;;;;;;;15.65;11.18;;;;;;;;;;4991384;28;20429;-84
2023/04/18 02:49:48;;;;;;;15.40;11.27;;;;;;;;;;4973663;28;20428;-82
2023/04/18 02:52:15;;;;;;;16.13;10.27;;;;;;;;;;4991105;28;20497;-82
2023/04/18 02:54:41;;;;;;;14.93;10.80;;;;;;;;;;4955967;28;20434;-82
2023/04/18 02:57:07;;;;;;;14.57;10.33;;;;;;;;;;4957467;28;20474;-79
2023/04/18 02:59:33;;;;;;;14.82;10.80;;;;;;;;;;4957216;28;20412;-79
2023/04/18 03:01:59;;;;;;;14.57;10.23;;;;;;;;;;4957757;28;20532;-78
2023/04/18 03:04:25;;;;;;;14.50;9.63;;;;;;;;;;4971720;28;20450;-80
2023/04/18 03:06:52;;;;;;;13.57;9.38;;;;;;;;;;4960020;28;20441;-80
2023/04/18 03:09:18;;;;;;;13.63;9.50;;;;;;;;;;4942849;28;20439;-81
2023/04/18 03:11:45;;;;;;;14.75;9.80;;;;;;;;;;4973809;28;20451;-81
2023/04/18 03:14:11;;;;;;;12.77;9.18;;;;;;;;;;4940911;28;20431;-81
2023/04/18 03:16:37;;;;;;;14.25;9.45;;;;;;;;;;4975523;28;20445;-80
2023/04/18 03:19:04;;;;;;;14.27;9.38;;;;;;;;;;4975257;28;20774;-81
2023/04/18 03:21:30;;;;;;;12.57;9.20;;;;;;;;;;4960407;28;20447;-80
2023/04/18 03:23:56;;;;;;;12.23;9.10;;;;;;;;;;4991425;28;20426;-80
2023/04/18 03:26:22;;;;;;;12.05;8.63;;;;;;;;;;4989278;28;20485;-82
2023/04/18 03:28:48;;;;;;;12.75;8.80;;;;;;;;;;4973814;28;20881;-83
2023/04/18 03:31:14;;;;;;;13.02;8.90;;;;;;;;;;4960211;28;20435;-82
2023/04/18 03:33:43;;;;;;;12.13;8.20;;;;;;;;;;4975298;28;20517;-82
2023/04/18 03:36:09;;;;;;;12.02;8.75;;;;;;;;;;4989503;28;20420;-83
2023/04/18 03:38:36;;;;;;;12.18;8.57;;;;;;;;;;4961650;28;20421;-83
2023/04/18 03:41:02;;;;;;;11.93;8.15;;;;;;;;;;4989125;28;20438;-84
2023/04/18 03:43:28;;;;;;;10.10;7.55;;;;;;;;;;4943188;28;20437;-83
2023/04/18 03:45:55;;;;;;;11.40;7.30;;;;;;;;;;4974054;28;20426;-83
2023/04/18 03:48:21;;;;;;;11.43;7.70;;;;;;;;;;4976404;28;20508;-83
2023/04/18 03:50:47;;;;;;;11.48;7.65;;;;;;;;;;4981037;28;20463;-83
2023/04/18 03:53:13;;;;;;;13.77;8.20;;;;;;;;;;4961500;28;20757;-81
2023/04/18 03:55:39;;;;;;;10.95;7.40;;;;;;;;;;4970928;28;20490;-83
2023/04/18 03:58:05;;;;;;;12.80;8.65;;;;;;;;;;4958610;28;20987;-83
2023/04/18 04:00:31;;;;;;;10.70;7.43;;;;;;;;;;4959427;28;20419;-84
2023/04/18 04:02:57;;;;;;;11.18;8.13;;;;;;;;;;4973705;28;20441;-83
2023/04/18 04:05:23;;;;;;;11.88;7.63;;;;;;;;;;4976027;28;20420;-82
2023/04/18 04:07:50;;;;;;;11.43;7.78;;;;;;;;;;4991381;28;20488;-82
2023/04/18 04:10:16;;;;;;;10.52;7.53;;;;;;;;;;4972412;28;20921;-82
2023/04/18 04:12:42;;;;;;;13.32;8.07;;;;;;;;;;4975219;28;20450;-83
2023/04/18 04:15:08;;;;;;;11.27;7.40;;;;;;;;;;4970277;28;20499;-83
2023/04/18 04:17:34;;;;;;;11.77;7.85;;;;;;;;;;4988414;28;20426;-83
2023/04/18 04:20:01;;;;;;;11.15;7.78;;;;;;;;;;4998346;28;20448;-83
2023/04/18 04:22:27;;;;;;;11.75;7.95;;;;;;;;;;4975998;28;20492;-84
2023/04/18 04:24:56;;;;;;;10.90;7.63;;;;;;;;;;4972862;28;20418;-82
2023/04/18 04:27:23;;;;;;;11.80;7.88;;;;;;;;;;4959091;28;20497;-82
2023/04/18 04:29:51;;;;;;;10.63;7.90;;;;;;;;;;4971526;28;20472;-83
2023/04/18 04:32:19;;;;;;;9.82;7.25;;;;;;;;;;4967986;28;20429;-81
2023/04/18 04:34:45;;;;;;;10.57;7.43;;;;;;;;;;4973956;28;20476;-82
2023/04/18 04:37:17;;;;;;;9.77;7.32;;;;;;;;;;4975270;28;20453;-83
2023/04/18 04:39:43;;;;;;;9.25;7.10;;;;;;;;;;4976710;28;20513;-83
2023/04/18 04:42:12;;;;;;;11.05;7.60;;;;;;;;;;4975234;28;20509;-84
2023/04/18 04:44:40;;;;;;;10.70;7.30;;;;;;;;;;4990168;28;20553;-84
2023/04/18 04:47:06;;;;;;;10.52;7.22;;;;;;;;;;4977566;28;20426;-81
2023/04/18 04:49:32;;;;;;;10.63;7.03;;;;;;;;;;4976249;28;20467;-84
2023/04/18 04:51:58;;;;;;;9.75;7.10;;;;;;;;;;4974748;28;20426;-83
2023/04/18 04:54:25;;;;;;;9.48;6.75;;;;;;;;;;4971568;28;20422;-83
2023/04/18 04:56:51;;;;;;;10.27;7.38;;;;;;;;;;4978394;28;20486;-83
2023/04/18 04:59:17;;;;;;;9.88;6.90;;;;;;;;;;4992364;28;21039;-83
2023/04/18 05:01:43;;;;;;;10.20;7.00;;;;;;;;;;5005007;28;20447;-84
2023/04/18 05:04:10;;;;;;;8.30;6.22;;;;;;;;;;4975249;28;20484;-84
2023/04/18 05:06:36;;;;;;;9.48;6.45;;;;;;;;;;4964827;28;20414;-83
2023/04/18 05:09:03;;;;;;;9.90;6.72;;;;;;;;;;4964386;28;20430;-83
2023/04/18 05:11:29;;;;;;;8.80;6.90;;;;;;;;;;4981262;28;20429;-83
2023/04/18 05:13:55;;;;;;;9.05;7.03;;;;;;;;;;5008081;28;20429;-82
2023/04/18 05:16:21;;;;;;;11.43;7.32;;;;;;;;;;4982950;28;20421;-85
2023/04/18 05:18:47;;;;;;;10.05;6.90;;;;;;;;;;4967106;28;20426;-85
2023/04/18 05:21:13;;;;;;;8.48;6.97;;;;;;;;;;4948490;28;20432;-84
2023/04/18 05:23:39;;;;;;;9.73;7.22;;;;;;;;;;4964497;28;20430;-84
2023/04/18 05:26:08;;;;;;;9.98;7.57;;;;;;;;;;4966010;28;20471;-84
2023/04/18 05:28:34;;;;;;;11.98;8.10;;;;;;;;;;4988438;28;20430;-84
2023/04/18 05:31:00;;;;;;;10.68;7.28;;;;;;;;;;4974508;28;20421;-84
2023/04/18 05:33:27;;;;;;;11.10;7.30;;;;;;;;;;4997941;28;20491;-84
2023/04/18 05:35:54;;;;;;;12.80;8.10;;;;;;;;;;4980009;28;20424;-83
2023/04/18 05:38:20;;;;;;;11.65;8.43;;;;;;;;;;4960596;28;20426;-80
2023/04/18 05:40:46;;;;;;;11.15;8.35;;;;;;;;;;4963557;28;20541;-84
2023/04/18 05:43:12;;;;;;;11.23;8.40;;;;;;;;;;4995861;28;20417;-81
2023/04/18 05:45:38;;;;;;;12.77;8.25;;;;;;;;;;4970958;28;20426;-81
2023/04/18 05:48:04;;;;;;;13.23;8.20;;;;;;;;;;4983337;28;20425;-81
2023/04/18 05:50:30;;;;;;;11.00;8.25;;;;;;;;;;4975678;28;20472;-82
2023/04/18 05:52:58;;;;;;;11.93;8.60;;;;;;;;;;4971960;28;20913;-81
2023/04/18 05:55:24;;;;;;;12.40;8.77;;;;;;;;;;4977556;28;20422;-80
2023/04/18 05:57:53;;;;;;;11.10;8.27;;;;;;;;;;4984629;28;21024;-82
2023/04/18 06:00:19;;;;;;;13.13;8.68;;;;;;;;;;4977542;28;20898;-81
2023/04/18 06:02:45;;;;;;;13.82;8.80;;;;;;;;;;4985669;28;20445;-81
2023/04/18 06:05:12;;;;;;;12.63;8.90;;;;;;;;;;4977444;28;20521;-81
2023/04/18 06:07:38;;;;;;;12.98;9.00;;;;;;;;;;4973091;28;20441;-81
2023/04/18 06:10:08;;;;;;;13.13;8.90;;;;;;;;;;4961379;28;20575;-82
2023/04/18 06:12:34;;;;;;;14.40;9.25;;;;;;;;;;4978153;28;20433;-82
2023/04/18 06:15:00;;;;;;;12.30;8.60;;;;;;;;;;4984898;28;20923;-83
2023/04/18 06:17:26;;;;;;;13.15;8.90;;;;;;;;;;4972655;28;20508;-82
2023/04/18 06:19:52;;;;;;;14.70;9.77;;;;;;;;;;4977166;28;20509;-83
2023/04/18 06:22:19;;;;;;;13.97;9.37;;;;;;;;;;4975343;28;20502;-84
2023/04/18 06:24:45;;;;;;;12.30;8.98;;;;;;;;;;4966589;28;20523;-82
2023/04/18 06:27:12;;;;;;;17.73;9.57;;;;;;;;;;4970541;28;20424;-81
2023/04/18 06:29:38;;;;;;;12.70;9.10;;;;;;;;;;4958804;28;20436;-81
2023/04/18 06:32:04;;;;;;;13.60;9.07;;;;;;;;;;4944923;28;20414;-83
2023/04/18 06:34:30;;;;;;;12.38;9.07;;;;;;;;;;4962259;28;20410;-83
2023/04/18 06:37:00;;;;;;;15.50;9.15;;;;;;;;;;4962732;28;20430;-82
2023/04/18 06:39:37;;;;;;;14.18;8.55;;;;;;;;;;4975106;28;21082;-83
2023/04/18 06:42:03;;;;;;;11.20;8.40;;;;;;;;;;4978304;28;20497;-84
2023/04/18 06:44:42;;;;;;;13.32;8.85;;;;;;;;;;4978254;28;20794;-83
2023/04/18 06:47:35;;;;;;;13.23;8.30;;;;;;;;;;4978921;28;20425;-82
2023/04/18 06:50:30;;;;;;;12.30;8.82;;;;;;;;;;4946123;28;20520;-83
2023/04/18 06:53:08;;;;;;;12.32;8.77;;;;;;;;;;4974575;28;20429;-82
2023/04/18 06:56:13;;;;;;;12.48;8.32;;;;;;;;;;4973791;28;20408;-79
2023/04/18 07:02:13;;;;;;;13.32;8.40;;;;;;;;;;4956534;28;20501;-82
2023/04/18 07:04:46;;;;;;;12.70;8.90;;;;;;;;;;4991640;28;20422;-81
2023/04/18 07:07:12;;;;;;;12.02;8.25;;;;;;;;;;4977300;28;20522;-83
2023/04/18 07:09:54;;;;;;;11.68;8.13;;;;;;;;;;4990050;28;20819;-82
2023/04/18 07:12:20;;;;;;;12.90;8.65;;;;;;;;;;4994932;28;20423;-82
2023/04/18 07:14:46;;;;;;;12.00;8.20;;;;;;;;;;4988451;28;20442;-82
2023/04/18 07:17:12;;;;;;;11.95;8.30;;;;;;;;;;4968128;28;20417;-80
2023/04/18 07:19:38;;;;;;;17.08;8.75;;;;;;;;;;4960446;28;20421;-82
2023/04/18 07:22:04;;;;;;;10.68;8.30;;;;;;;;;;4961041;28;20898;-83
2023/04/18 07:24:30;;;;;;;11.80;8.32;;;;;;;;;;4987760;28;20430;-84
2023/04/18 07:26:57;;;;;;;10.57;8.50;;;;;;;;;;4979517;28;20406;-83
2023/04/18 07:29:23;;;;;;;12.55;8.60;;;;;;;;;;4961046;28;20918;-82
2023/04/18 07:31:49;;;;;;;11.63;8.67;;;;;;;;;;4963312;28;20496;-83
2023/04/18 07:34:16;;;;;;;12.20;8.35;;;;;;;;;;4978019;28;20429;-83
2023/04/18 07:36:42;;;;;;;13.48;8.38;;;;;;;;;;4975854;28;20453;-83
2023/04/18 07:39:08;;;;;;;12.55;8.32;;;;;;;;;;4978367;28;20423;-82
2023/04/18 07:41:34;;;;;;;12.88;7.70;;;;;;;;;;4944283;28;20424;-81
2023/04/18 07:44:01;;;;;;;11.70;7.83;;;;;;;;;;4973858;28;20412;-83
2023/04/18 07:46:34;;;;;;;11.43;8.25;;;;;;;;;;4981441;28;20453;-87
2023/04/18 07:52:46;;;;;;;13.48;8.57;;;;;;;;;;4859821;29;20518;-87
2023/04/18 07:55:53;;;;;;;11.23;8.18;;;;;;;;;;4831191;29;20430;-87
2023/04/18 07:58:41;;;;;;;12.80;8.50;;;;;;;;;;4876405;29;20413;-86
2023/04/18 08:11:48;;;;;;;11.55;8.20;;;;;;;;;;4816482;29;20457;-86
2023/04/18 08:14:43;;;;;;;11.18;8.00;;;;;;;;;;4869740;29;20439;-87
2023/04/18 08:17:12;;;;;;;11.15;8.43;;;;;;;;;;4908792;29;20441;-87
2023/04/18 08:19:43;;;;;;;11.93;8.30;;;;;;;;;;4909212;29;20486;-87
2023/04/18 08:22:26;;;;;;;12.48;8.40;;;;;;;;;;4938033;29;20941;-88
2023/04/18 08:25:05;;;;;;;;;;;;;;;;;;;;;
2023/04/18 08:28:22;;;;;;;13.05;8.10;;;;;;;;;;4978653;28;20412;-85
2023/04/18 08:31:09;;;;;;;11.02;8.00;;;;;;;;;;4954945;28;20758;-87
2023/04/18 08:33:44;;;;;;;11.40;7.90;;;;;;;;;;4993616;28;20443;-86
2023/04/18 08:36:14;;;;;;;13.57;7.80;;;;;;;;;;4969543;28;20496;-86
2023/04/18 08:38:53;;;;;;;11.40;7.90;;;;;;;;;;4965868;28;20742;-86
2023/04/18 08:41:22;;;;;;;12.00;8.02;;;;;;;;;;4980412;28;20486;-87
2023/04/18 08:43:52;;;;;;;11.88;8.30;;;;;;;;;;4993876;28;20432;-87
2023/04/18 08:46:37;;;;;;;11.50;8.27;;;;;;;;;;4989801;28;20456;-85
2023/04/18 08:49:21;;;;;;;11.07;7.97;;;;;;;;;;5000971;28;20447;-87
2023/04/18 08:52:00;;;;;;;10.67;7.93;;;;;;;;;;4960519;28;20839;-87
2023/04/18 08:57:27;;;;;;;10.48;7.88;;;;;;;;;;4919904;28;20507;-86
2023/04/18 09:07:18;;;;;;;;;;;;;;;;;;;;;
2023/04/18 09:09:53;;;;;;;11.38;7.65;;;;;;;;;;4887880;28;20437;-88
2023/04/18 09:19:33;;;;;;;10.68;7.65;;;;;;;;;;4938472;28;20408;-86
2023/04/18 09:22:08;;;;;;;13.35;7.55;;;;;;;;;;4939306;28;20427;-87
2023/04/18 09:31:21;;;;;;;10.43;7.43;;;;;;;;;;4915649;29;20444;-85
2023/04/18 09:34:32;;;;;;;12.10;6.80;;;;;;;;;;4942504;28;20408;-86
2023/04/18 09:37:24;;;;;;;9.48;7.05;;;;;;;;;;4943395;28;20425;-86
2023/04/18 09:43:42;;;;;;;12.30;7.45;;;;;;;;;;4935257;29;20426;-87
2023/04/18 09:46:32;;;;;;;12.25;7.65;;;;;;;;;;4921932;29;20408;-87
2023/04/18 09:49:39;;;;;;;11.55;7.57;;;13.40;99.90;;;;;;4935993;28;20435;-87
2023/04/18 09:52:16;;;;;;;11.43;7.35;;;;;;;;;;4956950;28;20430;-88
2023/04/18 09:55:04;;;;;;;13.15;6.97;;;;;;;;;;4960167;28;20422;-87
2023/04/18 09:57:48;;;;;;;10.35;6.65;;;;;;;;;;4976504;28;20520;-87
2023/04/18 10:00:25;;;;;;;10.80;7.18;;;;;;;;;;4988034;28;20426;-86
2023/04/18 10:03:22;;;;;;;12.20;7.77;;;;;;;;;;4998576;28;20457;-87
2023/04/18 10:06:38;;;;;;;;;;;;;;;;;;;;;
2023/04/18 10:09:39;;;;;;;11.25;7.13;;;;;;;;;;4983514;28;20468;-88
2023/04/18 10:15:47;;;;;;;11.05;7.35;;;;;;;;;;4983041;28;20444;-85
2023/04/18 10:18:15;;;;;;;10.18;7.05;;;;;;;;;;4999658;28;21190;-85
2023/04/18 10:20:41;;;;;;;9.95;7.10;;;;;;;;;;4982116;28;20486;-86
2023/04/18 10:23:34;;;;;;;10.10;7.60;;;14.20;99.90;;;;;;4999093;28;20398;-86
2023/04/18 10:26:13;;;;;;;13.20;7.53;;;;;;;;;;4975422;28;20414;-87
2023/04/18 10:28:55;;;;;;;9.80;7.10;;;;;;;;;;4980049;28;20488;-83
2023/04/18 10:31:23;;;;;;;13.35;7.25;;;;;;;;;;4979803;28;20421;-85
2023/04/18 10:33:51;;;;;;;9.75;6.85;;;;;;;;;;4979507;28;20446;-85
2023/04/18 10:36:33;;;;;;;10.45;6.80;;;;;;;;;;4973900;28;20452;-86
2023/04/18 10:39:01;;;;;;;12.75;6.90;;;;;;;;;;4974010;28;20432;-86
2023/04/18 10:41:39;;;;;;;10.50;7.22;;;;;;;;;;4947036;28;20472;-86
2023/04/18 10:44:17;;;;;;;9.30;6.40;;;;;;;;;;4963076;28;21015;-88
2023/04/18 10:46:43;;;;;;;9.98;6.90;;;;;;;;;;4960925;28;20449;-83
2023/04/18 10:49:17;;;;;;;11.48;7.60;;;;;;;;;;4948618;28;20431;-82
2023/04/18 10:51:50;;;;;;;10.20;7.10;;;;;;;;;;4982432;28;20430;-85
2023/04/18 10:54:29;;;;;;;10.90;7.82;;;;;;;;;;4953914;28;20426;-85
2023/04/18 10:56:56;;;;;;;12.15;7.50;;;;;;;;;;5001885;28;20778;-86
2023/04/18 10:59:23;;;;;;;10.60;7.40;;;;;;;;;;4976706;28;20402;-83
2023/04/18 11:01:54;;;;;;;13.52;7.85;;;;;;;;;;4970478;28;20735;-85
2023/04/18 11:04:21;;;;;;;12.38;8.00;;;;;;;;;;4960060;28;20755;-83
2023/04/18 11:06:50;;;;;;;11.57;7.97;;;;;;;;;;4944012;28;20422;-82
2023/04/18 11:09:21;;;;;;;11.38;7.95;;;;;;;;;;4985991;28;20465;-84
2023/04/18 11:12:05;;;;;;;12.77;7.80;;;;;;;;;;4961784;28;20448;-85
2023/04/18 11:14:44;;;;;;;10.10;7.22;;;;;;;;;;4970175;28;20428;-85
2023/04/18 11:17:23;;;;;;;9.63;6.73;;;;;;;;;;4961450;28;20406;-83
2023/04/18 11:19:50;;;;;;;9.55;7.40;;;;;;;;;;4962584;28;20425;-80
2023/04/18 11:22:17;;;;;;;11.35;7.35;;;;;;;;;;4969720;28;21051;-81
2023/04/18 11:24:44;;;;;;;10.83;6.93;;;;;;;;;;4960041;28;20569;-80
2023/04/18 11:27:11;;;;;;;9.90;6.53;;;14.00;99.90;;;;;;4971715;28;20556;-81
2023/04/18 11:29:37;;;;;;;9.50;6.45;;;;;;;;;;4988671;28;20802;-81
2023/04/18 11:32:07;;;;;;;9.73;6.80;;;;;;;;;;4971338;28;20430;-80
2023/04/18 11:34:34;;;;;;;8.75;6.15;;;;;;;;;;4975804;28;20418;-80
2023/04/18 11:37:00;;;;;;;11.13;6.68;;;;;;;;;;4959216;28;20790;-80
2023/04/18 11:39:29;;;;;;;9.45;6.70;;;;;;;;;;4984107;28;20436;-80
2023/04/18 11:41:56;;;;;;;9.15;6.60;;;;;;;;;;4954523;28;20438;-81
2023/04/18 11:44:28;;;;;;;9.02;5.78;;;14.20;99.90;;;;;;4958199;28;20450;-80
2023/04/18 11:46:54;;;;;;;10.87;6.00;;;;;;;;;;4959296;28;20502;-80
2023/04/18 11:49:38;;;;;;;9.02;6.47;;;;;;;;;;4988133;28;20506;-80
2023/04/18 11:52:11;;;;;;;11.10;6.53;;;;;;;;;;4959394;28;20629;-80
2023/04/18 11:54:41;;;;;;;8.13;6.32;;;14.70;99.90;;;;;;4974774;28;20480;-80
2023/04/18 11:57:27;;;;;;;8.77;6.57;;;;;;;;;;4973061;28;21216;-81
2023/04/18 11:59:58;;;;;;;7.97;6.78;;;14.50;99.90;;;;;;4975092;28;20751;-81
2023/04/18 12:02:25;;;;;;;9.30;6.72;;;14.90;99.90;;;;;;4960861;28;20430;-79
2023/04/18 12:04:56;;;;;;;9.75;6.90;;;;;;;;;;4970956;28;20460;-79
2023/04/18 12:07:37;;;;;;;8.25;6.47;;;14.60;99.90;;;;;;4992492;28;20447;-81
2023/04/18 12:10:04;;;;;;;11.02;6.90;;;;;;;;;;4968933;28;20581;-81
2023/04/18 12:12:30;;;;;;;9.75;7.13;;;;;;;;;;4963057;28;20428;-82
2023/04/18 12:15:03;;;;;;;10.40;7.28;;;;;;;;;;4979566;28;20770;-81
2023/04/18 12:17:30;;;;;;;8.38;6.80;;;;;;;;;;4985456;28;20987;-81
2023/04/18 12:19:56;;;;;;;9.20;7.15;;;;;;;;;;4960016;28;20463;-81
2023/04/18 12:22:41;;;;;;;9.18;6.28;;;;;;;;;;4961864;28;20440;-81
2023/04/18 12:25:23;;;;;;;11.20;6.90;;;;;;;;;;4995036;28;20426;-81
2023/04/18 12:27:50;;;;;;;10.75;6.70;;;;;;;;;;4962988;28;20434;-81
2023/04/18 12:30:20;;;;;;;8.95;6.60;;;;;;;;;;4974197;28;20494;-80
2023/04/18 12:32:48;;;;;;;10.10;7.40;;;14.70;99.90;;;;;;4969150;28;20424;-80
2023/04/18 12:35:14;;;;;;;8.48;7.35;;;14.80;99.90;;;;;;4966286;28;20398;-78
2023/04/18 12:37:41;;;;;;;12.30;6.97;;;;;;;;;;5002845;28;20426;-81
2023/04/18 12:40:08;;;;;;;7.70;6.35;;;;;;;;;;4978779;28;20422;-81
2023/04/18 12:42:34;;;;;;;8.98;6.68;;;;;;;;;;4976711;28;21298;-81
2023/04/18 12:45:02;;;;;;;8.70;6.20;;;;;;;;;;4978595;28;20866;-81
2023/04/18 12:47:34;;;;;;;7.75;5.88;;;;;;;;;;4972535;28;20946;-81
2023/04/18 12:50:00;;;;;;;9.27;5.65;;;;;;;;;;4975273;28;20504;-81
2023/04/18 12:52:27;;;;;;;10.57;6.10;;;;;;;;;;4978740;28;20433;-81
2023/04/18 12:54:55;;;;;;;7.82;4.85;;;;;;;;;;4956484;28;20423;-81
2023/04/18 12:57:24;;;;;;;7.75;5.53;;;;;;;;;;4968547;28;21369;-81
2023/04/18 12:59:54;;;;;;;6.88;5.22;;;15.10;99.90;;;;;;4960029;28;20531;-82
2023/04/18 13:02:23;;;;;;;9.40;5.70;;;;;;;;;;4981743;28;20967;-81
2023/04/18 13:04:50;;;;;;;6.78;5.07;;;;;;;;;;4974645;28;20422;-80
2023/04/18 13:07:16;;;;;;;6.18;5.28;;;;;;;;;;4956610;28;20947;-81
2023/04/18 13:09:42;;;;;;;8.73;5.43;;;;;;;;;;4960441;28;20438;-81
2023/04/18 13:12:08;;;;;;;7.80;5.00;;;;;;;;;;4974208;28;20442;-81
2023/04/18 13:14:37;;;;;;;6.25;4.80;;;;;;;;;;4956593;28;20424;-81
2023/04/18 13:17:06;;;;;;;7.77;4.97;;;;;;;;;;4968502;28;20429;-81
2023/04/18 13:19:32;;;;;;;5.65;4.40;;;;;;;;;;4986938;28;20478;-81
2023/04/18 13:21:58;;;;;;;6.35;4.40;;;;;;;;;;4960235;28;20449;-81
2023/04/18 13:24:24;;;;;;;6.22;4.43;;;;;;;;;;4978299;28;20422;-81
2023/04/18 13:26:50;;;;;;;7.38;4.30;;;;;;;;;;4970974;28;20426;-81
2023/04/18 13:29:16;;;;;;;7.45;4.50;;;;;;;;;;4971378;28;20418;-81
2023/04/18 13:31:42;;;;;;;6.97;4.32;;;;;;;;;;4957535;28;20430;-79
2023/04/18 13:34:11;;;;;;;6.35;4.22;;;;;;;;;;4990539;28;20446;-84
2023/04/18 13:36:38;;;;;;;5.25;4.40;;;;;;;;;;4945555;28;20419;-85
2023/04/18 13:39:04;;;;;;;7.10;4.60;;;;;;;;;;4978052;28;20912;-81
2023/04/18 13:41:39;;;;;;;6.32;4.60;;;;;;;;;;4961941;28;20470;-82
2023/04/18 13:44:17;;;;;;;6.90;4.65;;;;;;;;;;4982713;28;20491;-83
2023/04/18 13:47:05;;;;;;;7.88;5.18;;;;;;;;;;4943232;28;20505;-83
2023/04/18 13:52:50;;;;;;;5.47;4.82;;;;;;;;;;4940585;28;22049;-82
2023/04/18 13:55:19;;;;;;;7.75;4.95;;;;;;;;;;4938763;28;20427;-81
2023/04/18 13:57:49;;;;;;;7.57;4.90;;;;;;;;;;4949942;28;21014;-83
2023/04/18 14:00:18;;;;;;;6.50;5.30;;;;;;;;;;4940511;28;20436;-84
2023/04/18 14:03:11;;;;;;;8.10;5.40;;;;;;;;;;4940938;28;20855;-83
2023/04/18 14:05:40;;;;;;;8.15;5.55;;;;;;;;;;4937398;28;20474;-83
2023/04/18 14:08:07;;;;;;;6.93;5.45;;;;;;;;;;4952575;28;20413;-82
2023/04/18 14:10:54;;;;;;;6.93;5.00;;;;;;;;;;4974665;28;20477;-83
2023/04/18 14:13:37;;;;;;;8.55;5.47;;;;;;;;;;4939205;28;20926;-82
2023/04/18 14:20:04;;;;;;;6.80;5.20;;;14.60;99.90;;;;;;4966385;28;20469;-83
2023/04/18 14:25:47;;;;;;;7.53;5.60;;;;;;;;;;4980096;28;20474;-81
2023/04/18 14:28:39;;;;;;;8.48;5.30;;;;;;;;;;4955890;28;20501;-82
2023/04/18 14:31:08;;;;;;;8.45;5.45;;;;;;;;;;4978012;28;20445;-83
2023/04/18 14:33:59;;;;;;;8.88;6.10;;;;;;;;;;4955795;28;20428;-83
2023/04/18 14:36:34;;;;;;;7.33;5.60;;;;;;;;;;4984288;28;20567;-83
2023/04/18 14:39:09;;;;;;;8.43;5.70;;;;;;;;;;4977864;28;20411;-82
2023/04/18 14:41:36;;;;;;;9.75;6.35;;;;;;;;;;4979809;28;20439;-82
2023/04/18 14:44:05;;;;;;;9.93;6.65;;;;;;;;;;4941177;28;20578;-82
2023/04/18 14:46:32;;;;;;;9.73;6.45;;;;;;;;;;4973399;28;20488;-82
2023/04/18 14:49:01;;;;;;;9.50;7.00;;;;;;;;;;4963798;28;20426;-81
2023/04/18 14:51:28;;;;;;;9.82;7.28;;;;;;;;;;4974826;28;20493;-81
2023/04/18 14:53:54;;;;;;;10.35;7.65;;;;;;;;;;4968081;28;20439;-82
2023/04/18 14:56:23;;;;;;;10.27;7.73;;;;;;;;;;4959914;28;20507;-79
2023/04/18 14:58:49;;;;;;;9.95;7.97;;;;;;;;;;4944735;28;20426;-82
2023/04/18 15:01:16;;;;;;;11.15;7.85;;;;;;;;;;4968341;28;20498;-82
2023/04/18 15:03:50;;;;;;;10.13;7.75;;;;;;;;;;4958641;28;20426;-82
2023/04/18 15:06:16;;;;;;;10.70;8.38;;;;;;;;;;4973565;28;20452;-82
2023/04/18 15:08:43;;;;;;;10.73;8.27;;;;;;;;;;4948595;28;20453;-81
2023/04/18 15:11:19;;;;;;;12.68;8.40;;;;;;;;;;4974690;28;20433;-82
2023/04/18 15:13:46;;;;;;;11.43;8.10;;;;;;;;;;4943170;28;20430;-83
2023/04/18 15:16:12;;;;;;;12.40;8.00;;;;;;;;;;4975151;28;20422;-83
2023/04/18 15:18:43;;;;;;;10.95;7.88;;;;;;;;;;4960284;28;20403;-82
2023/04/18 15:21:13;;;;;;;9.35;7.47;;;;;;;;;;4978956;28;20419;-82
2023/04/18 15:24:09;;;;;;;10.55;7.43;;;;;;;;;;4993036;28;20418;-83
2023/04/18 15:26:50;;;;;;;11.20;7.13;;;;;;;;;;4923334;28;20922;-82
2023/04/18 15:29:19;;;;;;;9.73;7.10;;;;;;;;;;4962941;28;20481;-85
2023/04/18 15:31:46;;;;;;;11.45;7.10;;;;;;;;;;4963063;28;20934;-84
2023/04/18 15:34:12;;;;;;;9.20;7.20;;;;;;;;;;4939122;28;20425;-83
2023/04/18 15:37:06;;;;;;;12.00;7.00;;;;;;;;;;4961058;28;20454;-84
2023/04/18 15:39:33;;;;;;;8.80;6.50;;;;;;;;;;4989886;28;20415;-84
2023/04/18 15:42:06;;;;;;;11.52;8.00;;;;;;;;;;4959510;28;20562;-85
2023/04/18 15:44:32;;;;;;;10.80;7.50;;;;;;;;;;4957882;28;20428;-85
2023/04/18 15:47:04;;;;;;;10.82;7.68;;;;;;;;;;4949447;28;20473;-83